Mexico, Kentucky
Current Conditions -  °F | °C
As of 8:35 AM on Thursday 23 Oct 2014 (Local Time) from K5M9 Reporting Station
Clear Clear  
Wind Chill: 44°   Ceiling: Unl
Heat Index: 44°   Visibility: 10mi
Dew Point: 41°   Wind: 3mph
Humidity: 90%   Direction: 120°ESE
Pressure: 30.23"   Gusts: NA
Location:  37.3359°N, 88.1049°W
Report Text: K5M9 231335Z AUTO 12003KT 10SM CLR 07/05 A3023 RMK AO2 T00670051
Loading
Personal Weather Stations






























Interactive Weather Map
Tropical Storm Tracking
New forecast layout! Learn more

10-Day Weather Forecast

Advertisements
Track Severe Weather on mobile